Details From LFKF - Figari Sud Corse
To LFMN - Nice/Cote d'Azur
Flight Number -
Tags None
Created
Modified
Stats Distance 154 nm / 285 km
Max Altitude 16,000 ft / 4,877 m
Waypoints 3
Social Downloads 0
Likes 0
Share VATSIM

Download

Looking for another format? Having issues loading an existing format? Contact us
Advertisement - Login to hide

Notes

None

Route

LFKF ABRON LFMN

ID Type Via Altitude Latitude Longitude Leg Dist Tot Dist Heading (true) Name
O LFKF APT - 0 ft / 0 m 41.50206˚ 9.09696˚ - 0 nm - Figari Sud Corse
ABRON FIX - 16,000 ft / 4,877 m 42.61417˚ 8.14778˚ 79 nm 79 nm 328° / 327° -
O LFMN APT - 0 ft / 0 m 43.65798˚ 7.21536˚ 74 nm 153 nm 327° / 327° Nice/Cote d'Azur

Altitude Profile

Advertisement - Login to hide

LFKF

Details ICAO LFKF (FSC)
Name Figari Sud Corse
Region France
Timezone Europe/Paris (UTC+2.0)
Stats Elevation 87 ft / 27 m (AMSL)
Location 41.502064° 9.096960°
Runways 1
Magnetic Variation 2.424° E

METAR

LFKF 202330Z AUTO 05006KT CAVOK 17/14 Q1012

Decode

TAF

TAF LFKF 202130Z 2021/2115 CNL= TAF LFMP 202130Z 2021/2115 CNL

Decode

Departure Runways

ID Width Length Bearing (true) Bearing (mag) Surface Threshold Offset Overrun Length
05 148 ft / 45 m 8,131 ft / 2,478 m 47.42° 45.00° Asphalt 0 ft / 0 m 0 ft / 0 m
23 148 ft / 45 m 8,131 ft / 2,478 m 227.44° 225.02° Asphalt 0 ft / 0 m 0 ft / 0 m

LFMN

Details ICAO LFMN (NCE)
Name Nice/Cote d'Azur
Region France
Timezone Unknown (UTC+0.0)
Stats Elevation 12 ft / 4 m (AMSL)
Location 43.657981° 7.215362°
Runways 2
Magnetic Variation 2.065° E

METAR

LFMN 202330Z 35009KT 9999 FEW040 20/11 Q1013 NOSIG

Decode

TAF

TAF LFMN 202000Z 2021/2203 34007KT 9999 FEW040 BECMG 2107/2109 18010KT PROB40 TEMPO 2109/2114 20010G20KT SHRA SCT040TCU BECMG 2118/2120 33006KT TEMPO 2120/2203 VRB15G30KT 4000 TSRA FEW010 BKN040CB

Decode

Destination Runways

ID Width Length Bearing (true) Bearing (mag) Surface Threshold Offset Overrun Length
04L 148 ft / 45 m 8,427 ft / 2,569 m 44.85° 42.79° Asphalt 0 ft / 0 m 131 ft / 40 m
04R 148 ft / 45 m 9,720 ft / 2,963 m 44.60° 42.54° Asphalt 0 ft / 0 m 427 ft / 130 m
22L 148 ft / 45 m 9,720 ft / 2,963 m 224.62° 222.56° Asphalt 0 ft / 0 m 525 ft / 160 m
22R 148 ft / 45 m 8,427 ft / 2,569 m 224.87° 222.81° Asphalt 0 ft / 0 m 492 ft / 150 m

Approach Navaids

Runway Type Ident Frequency Range Bearing (true) Bearing (mag) Slope Elevation
04L Localiser NI 109.95 MHz 27 nm / 50 km 44.90° 42.84° - 12 ft / 4 m (AMSL)
04L Glidescope NI 109.95 MHz 27 nm / 50 km 44.90° 42.84° 3.00° 12 ft / 4 m (AMSL)
04L DME NI 109.95 MHz 27 nm / 50 km - - - 12 ft / 4 m (AMSL)
04R Localiser NA 110.70 MHz 27 nm / 50 km 42.00° 39.94° - 12 ft / 4 m (AMSL)
04R Glidescope NA 110.70 MHz 27 nm / 50 km 42.00° 39.94° 3.00° 12 ft / 4 m (AMSL)
04R DME NA 110.70 MHz 27 nm / 50 km - - - 12 ft / 4 m (AMSL)

Popular Alternatives